Time;durP1;ratioP1;P1;durP2;ratioP2;P2;SDS_P1;SDS_P2;PMS_P1;PMS_P2;Temp;Humidity;BMP_temperature;BMP_pressure;BME280_temperature;BME280_humidity;BME280_pressure;Samples;Min_cycle;Max_cycle;Signal;HPM_P1;HPM_P2
2024/01/08 00:01:56;;;;;;;4.93;3.67;;;-1.40;99.90;;;;;;4775748;30;20681;-81
2024/01/08 00:04:22;;;;;;;5.70;3.70;;;-1.50;99.90;;;;;;4760900;30;20244;-82
2024/01/08 00:06:50;;;;;;;6.17;3.77;;;-1.50;99.90;;;;;;4773645;30;20192;-82
2024/01/08 00:09:16;;;;;;;9.67;4.20;;;-1.50;99.90;;;;;;4772790;30;20584;-81
2024/01/08 00:11:42;;;;;;;6.63;3.63;;;-1.40;99.90;;;;;;4772526;30;20216;-81
2024/01/08 00:14:07;;;;;;;5.87;3.73;;;-1.40;99.90;;;;;;4772231;30;20199;-82
2024/01/08 00:16:34;;;;;;;4.97;3.53;;;-1.40;99.90;;;;;;4772284;30;20237;-80
2024/01/08 00:19:00;;;;;;;6.43;4.13;;;-1.30;99.90;;;;;;4759291;30;20200;-81
2024/01/08 00:21:27;;;;;;;6.63;4.13;;;-1.30;99.90;;;;;;4771944;30;20647;-83
2024/01/08 00:23:52;;;;;;;8.50;3.87;;;-1.30;99.90;;;;;;4765421;30;20206;-81
2024/01/08 00:26:18;;;;;;;5.40;3.90;;;-1.20;99.90;;;;;;4759358;30;20199;-82
2024/01/08 00:28:45;;;;;;;5.23;3.60;;;-1.30;99.90;;;;;;4772924;30;20578;-82
2024/01/08 00:31:11;;;;;;;7.93;4.00;;;-1.30;99.90;;;;;;4787285;30;20286;-83
2024/01/08 00:33:36;;;;;;;7.43;3.93;;;-1.30;99.90;;;;;;4765057;30;20314;-83
2024/01/08 00:36:02;;;;;;;6.10;3.83;;;-1.30;99.90;;;;;;4762405;30;20199;-85
2024/01/08 00:38:28;;;;;;;7.03;4.20;;;-1.30;99.90;;;;;;4770702;30;20241;-81
2024/01/08 00:40:54;;;;;;;8.33;4.30;;;-1.40;99.90;;;;;;4772376;30;20199;-81
2024/01/08 00:43:19;;;;;;;8.80;3.53;;;-1.40;99.90;;;;;;4765034;30;20279;-81
2024/01/08 00:45:45;;;;;;;4.90;3.43;;;-1.40;99.90;;;;;;4773472;30;20241;-85
2024/01/08 00:48:13;;;;;;;6.80;3.70;;;-1.40;99.90;;;;;;4765063;30;20199;-84
2024/01/08 00:50:39;;;;;;;6.37;3.20;;;-1.40;99.90;;;;;;4772060;30;20211;-83
2024/01/08 00:53:04;;;;;;;6.43;3.90;;;-1.40;99.90;;;;;;4766081;30;20220;-82
2024/01/08 00:55:30;;;;;;;4.97;3.33;;;-1.40;99.90;;;;;;4772167;30;20518;-83
2024/01/08 00:57:58;;;;;;;3.23;2.70;;;-1.40;99.90;;;;;;4772219;30;20206;-84
2024/01/08 01:00:24;;;;;;;4.33;2.90;;;-1.40;99.90;;;;;;4772164;30;20198;-85
2024/01/08 01:02:50;;;;;;;4.10;3.17;;;-1.40;99.90;;;;;;4768016;30;20204;-83
2024/01/08 01:05:16;;;;;;;5.20;3.00;;;-1.30;99.90;;;;;;4764547;30;20239;-83
2024/01/08 01:07:42;;;;;;;4.97;2.63;;;-1.30;99.90;;;;;;4758656;30;20537;-81
2024/01/08 01:10:08;;;;;;;5.77;2.90;;;-1.30;99.90;;;;;;4766079;30;20271;-81
2024/01/08 01:12:33;;;;;;;6.73;2.83;;;-1.30;99.90;;;;;;4771784;30;20227;-82
2024/01/08 01:14:59;;;;;;;3.57;2.60;;;-1.40;99.90;;;;;;4773367;30;20291;-81
2024/01/08 01:17:25;;;;;;;3.47;2.00;;;-1.30;99.90;;;;;;4771477;30;20245;-83
2024/01/08 01:19:51;;;;;;;3.80;2.37;;;-1.40;99.90;;;;;;4772861;30;20616;-82
2024/01/08 01:22:16;;;;;;;3.37;2.00;;;-1.40;99.90;;;;;;4771972;30;20204;-81
2024/01/08 01:24:42;;;;;;;3.50;2.30;;;-1.40;99.90;;;;;;4771780;30;20196;-79
2024/01/08 01:27:12;;;;;;;3.43;2.33;;;-1.40;99.90;;;;;;4779178;30;20298;-85
2024/01/08 01:29:38;;;;;;;3.60;2.40;;;-1.40;99.90;;;;;;4786579;30;20199;-82
2024/01/08 01:32:04;;;;;;;3.13;2.30;;;-1.40;99.90;;;;;;4762726;30;20216;-81
2024/01/08 01:34:30;;;;;;;3.57;2.47;;;-1.40;99.90;;;;;;4765625;30;20262;-82
2024/01/08 01:36:56;;;;;;;2.73;2.27;;;-1.40;99.90;;;;;;4771294;30;20886;-86
2024/01/08 01:39:22;;;;;;;4.13;2.17;;;-1.40;99.90;;;;;;4771651;30;20196;-86
2024/01/08 01:41:50;;;;;;;4.33;2.60;;;-1.40;99.90;;;;;;4771543;30;20203;-82
2024/01/08 01:44:16;;;;;;;4.63;2.43;;;-1.40;99.90;;;;;;4771266;30;20203;-85
2024/01/08 01:46:45;;;;;;;4.10;2.20;;;-1.40;99.90;;;;;;4756732;30;20196;-85
2024/01/08 01:49:13;;;;;;;4.63;2.63;;;-1.40;99.90;;;;;;4771125;30;20282;-81
2024/01/08 01:51:44;;;;;;;3.80;2.60;;;-1.40;99.90;;;;;;4770946;30;20315;-85
2024/01/08 01:54:14;;;;;;;3.83;2.17;;;-1.40;99.90;;;;;;4764032;30;20203;-81
2024/01/08 01:56:43;;;;;;;4.33;2.40;;;-1.40;99.90;;;;;;4771562;30;20225;-81
2024/01/08 01:59:11;;;;;;;3.93;2.47;;;-1.40;99.90;;;;;;4770983;30;20203;-86
2024/01/08 02:01:37;;;;;;;4.70;2.70;;;-1.40;99.90;;;;;;4768763;30;20250;-85
2024/01/08 02:04:03;;;;;;;5.30;2.03;;;-1.40;99.90;;;;;;4763860;30;20248;-82
2024/01/08 02:06:30;;;;;;;3.63;2.67;;;-1.40;99.90;;;;;;4769254;30;20200;-82
2024/01/08 02:08:56;;;;;;;4.20;2.90;;;-1.40;99.90;;;;;;4763722;30;20371;-82
2024/01/08 02:11:22;;;;;;;3.63;2.03;;;-1.30;99.90;;;;;;4772268;30;20215;-85
2024/01/08 02:13:48;;;;;;;4.23;2.67;;;-1.40;99.90;;;;;;4764894;30;20199;-84
2024/01/08 02:16:15;;;;;;;3.03;2.23;;;-1.40;99.90;;;;;;4763469;30;20202;-84
2024/01/08 02:18:44;;;;;;;3.77;2.47;;;-1.40;99.90;;;;;;4770864;30;20311;-85
2024/01/08 02:21:09;;;;;;;3.77;2.40;;;-1.50;99.90;;;;;;4770968;30;20207;-84
2024/01/08 02:23:35;;;;;;;3.47;2.47;;;-1.40;99.90;;;;;;4763639;30;20207;-86
2024/01/08 02:26:03;;;;;;;4.90;2.27;;;-1.50;99.90;;;;;;4756225;30;20706;-85
2024/01/08 02:28:29;;;;;;;4.00;2.40;;;-1.50;99.90;;;;;;4770446;30;20227;-85
2024/01/08 02:30:56;;;;;;;5.73;3.07;;;-1.40;99.90;;;;;;4770869;30;20238;-82
2024/01/08 02:33:22;;;;;;;5.67;2.67;;;-1.40;99.90;;;;;;4763274;30;20663;-85
2024/01/08 02:35:48;;;;;;;3.53;2.43;;;-1.40;99.90;;;;;;4762649;30;20295;-82
2024/01/08 02:38:14;;;;;;;4.70;2.73;;;-1.30;99.90;;;;;;4761188;30;20226;-84
2024/01/08 02:40:43;;;;;;;3.80;2.27;;;-1.40;99.90;;;;;;4768850;30;20259;-82
2024/01/08 02:43:08;;;;;;;6.27;2.97;;;-1.40;99.90;;;;;;4759425;30;20257;-81
2024/01/08 02:45:34;;;;;;;5.53;3.30;;;-1.30;99.90;;;;;;4763345;30;20200;-81
2024/01/08 02:48:01;;;;;;;4.70;3.10;;;-1.40;99.90;;;;;;4770111;30;20196;-81
2024/01/08 02:50:27;;;;;;;4.73;3.07;;;-1.40;99.90;;;;;;4770670;30;20196;-82
2024/01/08 02:52:53;;;;;;;6.53;2.90;;;-1.40;99.90;;;;;;4770603;30;20235;-82
2024/01/08 02:55:19;;;;;;;3.57;2.50;;;-1.40;99.90;;;;;;4770272;30;20691;-83
2024/01/08 02:57:52;;;;;;;3.87;2.80;;;-1.50;99.90;;;;;;4770499;30;20200;-86
2024/01/08 03:00:17;;;;;;;3.07;2.13;;;-1.50;99.90;;;;;;4770417;30;20951;-85
2024/01/08 03:02:43;;;;;;;4.93;2.80;;;-1.50;99.90;;;;;;4771853;30;20270;-82
2024/01/08 03:05:09;;;;;;;7.43;2.97;;;-1.60;99.90;;;;;;4780968;30;20691;-86
2024/01/08 03:07:35;;;;;;;7.73;3.30;;;-1.60;99.90;;;;;;4771331;30;20192;-82
2024/01/08 03:10:01;;;;;;;6.10;3.23;;;-1.60;99.90;;;;;;4785279;29;20228;-82
2024/01/08 03:12:26;;;;;;;5.57;3.00;;;-1.60;99.90;;;;;;4762868;30;20260;-84
2024/01/08 03:14:53;;;;;;;5.30;3.13;;;-1.60;99.90;;;;;;4770434;30;20299;-84
2024/01/08 03:17:18;;;;;;;6.07;3.23;;;-1.70;99.90;;;;;;4770233;30;20326;-86
2024/01/08 03:19:47;;;;;;;7.03;3.93;;;-1.70;99.90;;;;;;4759951;30;20219;-83
2024/01/08 03:22:13;;;;;;;4.37;2.77;;;-1.70;99.90;;;;;;4767003;30;20218;-86
2024/01/08 03:24:39;;;;;;;5.17;2.90;;;-1.70;99.90;;;;;;4771291;30;20188;-85
2024/01/08 03:27:05;;;;;;;4.70;3.13;;;-1.70;99.90;;;;;;4765399;30;20189;-82
2024/01/08 03:29:30;;;;;;;4.53;2.60;;;-1.70;99.90;;;;;;4768764;30;20196;-88
2024/01/08 03:31:56;;;;;;;6.27;2.70;;;-1.80;99.90;;;;;;4770241;30;20580;-85
2024/01/08 03:34:22;;;;;;;6.23;3.07;;;-1.80;99.90;;;;;;4765815;30;20192;-88
2024/01/08 03:36:49;;;;;;;4.53;3.00;;;-1.80;99.90;;;;;;4766394;30;20196;-87
2024/01/08 03:39:16;;;;;;;8.27;3.33;;;-1.90;99.90;;;;;;4766216;30;20199;-83
2024/01/08 03:41:42;;;;;;;5.20;3.13;;;-1.90;99.90;;;;;;4770187;30;20199;-84
2024/01/08 03:44:08;;;;;;;5.40;3.37;;;-1.90;99.90;;;;;;4770874;30;20203;-85
2024/01/08 03:46:34;;;;;;;4.53;3.20;;;-1.90;99.90;;;;;;4762414;30;20226;-83
2024/01/08 03:49:01;;;;;;;6.13;3.60;;;-2.00;99.90;;;;;;4769718;30;20631;-81
2024/01/08 03:51:27;;;;;;;5.17;3.13;;;-2.10;99.90;;;;;;4769541;30;20222;-80
2024/01/08 03:53:53;;;;;;;5.30;3.10;;;-2.10;99.90;;;;;;4769831;30;20207;-83
2024/01/08 03:56:19;;;;;;;6.77;3.40;;;-2.20;99.90;;;;;;4769734;30;20219;-83
2024/01/08 03:58:46;;;;;;;4.43;2.70;;;-2.20;99.90;;;;;;4773309;30;20222;-82
2024/01/08 04:01:12;;;;;;;2.87;2.00;;;-2.30;99.90;;;;;;4774369;30;20278;-84
2024/01/08 04:03:38;;;;;;;7.53;3.00;;;-2.40;99.90;;;;;;4773421;30;20302;-82
2024/01/08 04:06:04;;;;;;;4.37;2.60;;;-2.50;99.90;;;;;;4771420;30;20345;-82
2024/01/08 04:08:30;;;;;;;4.60;2.60;;;-2.50;99.90;;;;;;4775664;30;20206;-84
2024/01/08 04:10:55;;;;;;;5.23;2.97;;;-2.60;99.90;;;;;;4776017;30;20747;-81
2024/01/08 04:13:21;;;;;;;4.00;2.67;;;-2.70;99.90;;;;;;4775915;30;20229;-83
2024/01/08 04:15:47;;;;;;;5.17;2.50;;;-2.70;99.90;;;;;;4792091;30;20271;-82
2024/01/08 04:18:13;;;;;;;3.53;2.70;;;-2.80;99.90;;;;;;4775740;30;20270;-81
2024/01/08 04:20:41;;;;;;;3.77;2.30;;;-2.80;99.90;;;;;;4775376;30;20254;-81
2024/01/08 04:23:07;;;;;;;3.17;2.33;;;-2.90;99.90;;;;;;4775770;30;20222;-83
2024/01/08 04:25:33;;;;;;;3.80;2.43;;;-3.00;99.90;;;;;;4775784;30;20459;-83
2024/01/08 04:27:59;;;;;;;5.30;2.60;;;-3.00;99.90;;;;;;4775455;30;20199;-85
2024/01/08 04:30:25;;;;;;;4.33;2.40;;;-3.00;99.90;;;;;;4775672;30;20259;-83
2024/01/08 04:32:50;;;;;;;3.60;2.30;;;-3.00;99.90;;;;;;4775638;30;20259;-84
2024/01/08 04:35:16;;;;;;;3.23;2.17;;;-3.00;99.90;;;;;;4771201;30;20195;-85
2024/01/08 04:37:42;;;;;;;3.20;2.20;;;-3.10;99.90;;;;;;4784116;30;20204;-87
2024/01/08 04:40:08;;;;;;;3.70;2.13;;;-3.10;99.90;;;;;;4775649;30;20195;-83
2024/01/08 04:42:34;;;;;;;2.73;1.83;;;-3.20;99.90;;;;;;4791851;30;20196;-84
2024/01/08 04:45:00;;;;;;;4.10;2.00;;;-3.20;99.90;;;;;;4775439;30;20192;-83
2024/01/08 04:47:26;;;;;;;4.03;2.30;;;-3.20;99.90;;;;;;4775264;30;20206;-83
2024/01/08 04:49:52;;;;;;;4.90;2.30;;;-3.30;99.90;;;;;;4768097;30;20199;-85
2024/01/08 04:52:17;;;;;;;4.10;2.07;;;-3.30;99.90;;;;;;4767565;30;20600;-83
2024/01/08 04:54:43;;;;;;;2.87;1.83;;;-3.40;99.90;;;;;;4791428;30;20196;-83
2024/01/08 04:57:09;;;;;;;4.90;2.43;;;-3.40;99.90;;;;;;4775190;30;20696;-82
2024/01/08 04:59:43;;;;;;;3.27;2.20;;;-3.40;99.90;;;;;;4767370;30;20632;-84
2024/01/08 05:02:12;;;;;;;3.90;2.40;;;-3.50;99.90;;;;;;4785075;30;20649;-84
2024/01/08 05:04:37;;;;;;;3.20;2.10;;;-3.50;99.90;;;;;;4769816;30;20261;-86
2024/01/08 05:07:04;;;;;;;3.17;2.03;;;-3.50;99.90;;;;;;4774690;30;20199;-84
2024/01/08 05:09:30;;;;;;;4.80;2.33;;;-3.60;99.90;;;;;;4774225;30;20576;-82
2024/01/08 05:11:57;;;;;;;3.97;2.27;;;-3.60;99.90;;;;;;4774294;30;20524;-82
2024/01/08 05:14:22;;;;;;;3.33;2.30;;;-3.60;99.90;;;;;;4788371;30;20207;-83
2024/01/08 05:16:48;;;;;;;4.20;1.87;;;-3.70;99.90;;;;;;4774671;30;20580;-83
2024/01/08 05:19:15;;;;;;;4.13;2.10;;;-3.70;99.90;;;;;;4790546;30;20222;-83
2024/01/08 05:21:41;;;;;;;4.03;1.90;;;-3.80;99.90;;;;;;4774376;30;20556;-83
2024/01/08 05:24:07;;;;;;;8.60;2.03;;;-3.80;99.90;;;;;;4774650;30;20616;-85
2024/01/08 05:26:33;;;;;;;2.97;2.07;;;-3.90;99.90;;;;;;4774657;30;20203;-83
2024/01/08 05:28:59;;;;;;;3.73;2.50;;;-3.90;99.90;;;;;;4774296;30;20210;-83
2024/01/08 05:31:25;;;;;;;3.97;2.20;;;-3.90;99.90;;;;;;4774480;30;20638;-79
2024/01/08 05:33:51;;;;;;;4.90;2.07;;;-3.90;99.90;;;;;;4773701;30;20196;-80
2024/01/08 05:36:16;;;;;;;2.37;1.70;;;-4.00;99.90;;;;;;4770698;30;20195;-83
2024/01/08 05:38:42;;;;;;;2.93;1.90;;;-4.00;99.90;;;;;;4774308;30;20206;-81
2024/01/08 05:41:09;;;;;;;3.47;2.03;;;-4.00;99.90;;;;;;4790560;30;20186;-81
2024/01/08 05:43:37;;;;;;;5.23;2.53;;;-4.10;99.90;;;;;;4774462;30;20201;-81
2024/01/08 05:46:07;;;;;;;3.23;2.03;;;-4.10;99.90;;;;;;4766886;30;20631;-82
2024/01/08 05:48:39;;;;;;;3.73;2.10;;;-4.20;99.90;;;;;;4773926;30;20192;-80
2024/01/08 05:51:07;;;;;;;3.03;2.10;;;-4.10;99.90;;;;;;4773753;30;20635;-83
2024/01/08 05:53:33;;;;;;;3.40;2.43;;;-4.20;99.90;;;;;;4788647;30;20189;-84
2024/01/08 05:55:59;;;;;;;3.20;2.00;;;-4.20;99.90;;;;;;4768714;30;20199;-83
2024/01/08 05:58:25;;;;;;;5.40;2.00;;;-4.20;99.90;;;;;;4773905;30;20195;-83
2024/01/08 06:00:54;;;;;;;3.93;2.30;;;-4.30;99.90;;;;;;4774166;30;20220;-80
2024/01/08 06:03:22;;;;;;;3.30;2.20;;;-4.30;99.90;;;;;;4766338;30;20222;-80
2024/01/08 06:05:48;;;;;;;3.97;2.20;;;-4.30;99.90;;;;;;4782553;30;20235;-80
2024/01/08 06:08:14;;;;;;;3.63;2.10;;;-4.30;99.90;;;;;;4773943;30;20508;-81
2024/01/08 06:10:40;;;;;;;4.03;2.37;;;-4.30;99.90;;;;;;4773665;30;20203;-81
2024/01/08 06:13:08;;;;;;;4.80;2.37;;;-4.30;99.90;;;;;;4773610;30;20191;-80
2024/01/08 06:15:34;;;;;;;4.20;2.43;;;-4.30;99.90;;;;;;4773626;30;20532;-81
2024/01/08 06:18:00;;;;;;;4.97;2.67;;;-4.40;99.90;;;;;;4773531;30;20616;-81
2024/01/08 06:20:25;;;;;;;3.97;2.37;;;-4.40;99.90;;;;;;4765676;29;20232;-83
2024/01/08 06:22:51;;;;;;;4.43;2.47;;;-4.40;99.90;;;;;;4765763;30;20240;-82
2024/01/08 06:25:18;;;;;;;5.17;2.60;;;-4.40;99.90;;;;;;4773401;30;20606;-81
2024/01/08 06:27:43;;;;;;;3.87;2.33;;;-4.50;99.90;;;;;;4762868;30;20637;-81
2024/01/08 06:30:10;;;;;;;4.73;2.50;;;-4.50;99.90;;;;;;4778881;30;20200;-79
2024/01/08 06:32:35;;;;;;;3.10;2.20;;;-4.50;99.90;;;;;;4770366;30;20207;-81
2024/01/08 06:35:02;;;;;;;3.67;2.43;;;-4.60;99.90;;;;;;4763997;30;20206;-81
2024/01/08 06:37:28;;;;;;;4.07;2.43;;;-4.50;99.90;;;;;;4772046;30;20224;-80
2024/01/08 06:39:54;;;;;;;3.93;2.40;;;-4.60;99.90;;;;;;4767617;30;20248;-81
2024/01/08 06:42:21;;;;;;;3.93;2.60;;;-4.60;99.90;;;;;;4773379;30;20223;-83
2024/01/08 06:44:47;;;;;;;6.87;2.83;;;-4.60;99.90;;;;;;4773579;30;20203;-84
2024/01/08 06:47:13;;;;;;;5.70;2.90;;;-4.70;99.90;;;;;;4773245;30;20256;-84
2024/01/08 06:49:38;;;;;;;4.57;2.83;;;-4.60;99.90;;;;;;4789201;30;20205;-83
2024/01/08 06:52:05;;;;;;;5.23;2.83;;;-4.60;99.90;;;;;;4767406;30;20227;-84
2024/01/08 06:54:34;;;;;;;3.87;2.50;;;-4.70;99.90;;;;;;4771892;30;20221;-83
2024/01/08 06:56:59;;;;;;;5.00;2.70;;;-4.70;99.90;;;;;;4765825;30;20222;-83
2024/01/08 06:59:25;;;;;;;7.63;2.97;;;-4.70;99.90;;;;;;4773104;30;20219;-83
2024/01/08 07:01:51;;;;;;;4.80;2.80;;;-4.70;99.90;;;;;;4789234;29;20255;-82
2024/01/08 07:04:18;;;;;;;4.57;2.73;;;-4.70;99.90;;;;;;4768498;30;20251;-83
2024/01/08 07:06:44;;;;;;;3.93;2.77;;;-4.70;99.90;;;;;;4789204;29;20601;-83
2024/01/08 07:09:10;;;;;;;4.23;2.40;;;-4.80;99.90;;;;;;4773209;30;20202;-84
2024/01/08 07:11:43;;;;;;;5.33;2.70;;;-4.80;99.90;;;;;;4771295;30;20199;-84
2024/01/08 07:14:09;;;;;;;5.53;2.73;;;-4.80;99.90;;;;;;4769509;30;20192;-84
2024/01/08 07:16:34;;;;;;;4.40;2.60;;;-4.80;99.90;;;;;;4771442;30;20199;-84
2024/01/08 07:19:00;;;;;;;3.77;2.60;;;-4.80;99.90;;;;;;4768005;30;20199;-84
2024/01/08 07:21:27;;;;;;;4.43;3.07;;;-4.80;99.90;;;;;;4765801;30;20196;-84
2024/01/08 07:23:54;;;;;;;4.97;2.90;;;-4.90;99.90;;;;;;4773343;30;20216;-83
2024/01/08 07:26:20;;;;;;;4.10;2.63;;;-4.90;99.90;;;;;;4772900;30;20279;-84
2024/01/08 07:28:46;;;;;;;5.60;2.90;;;-4.90;99.90;;;;;;4773198;30;20261;-85
2024/01/08 07:31:15;;;;;;;5.63;3.30;;;-4.90;99.90;;;;;;4773142;30;20645;-85
2024/01/08 07:33:41;;;;;;;6.37;3.10;;;-4.90;99.90;;;;;;4768799;30;20205;-84
2024/01/08 07:36:08;;;;;;;4.27;2.70;;;-4.90;99.90;;;;;;4771912;30;20341;-84
2024/01/08 07:38:33;;;;;;;4.87;2.90;;;-4.90;99.90;;;;;;4776095;30;20231;-83
2024/01/08 07:41:00;;;;;;;4.07;2.97;;;-4.90;99.90;;;;;;4776801;30;20744;-83
2024/01/08 07:43:26;;;;;;;6.00;3.50;;;-5.00;99.90;;;;;;4776609;30;20230;-84
2024/01/08 07:45:52;;;;;;;6.87;4.23;;;-5.00;99.90;;;;;;4780859;30;20202;-83
2024/01/08 07:48:19;;;;;;;6.73;4.10;;;-5.00;99.90;;;;;;4765872;30;20198;-86
2024/01/08 07:50:46;;;;;;;9.53;5.90;;;-5.00;99.90;;;;;;4758701;30;20572;-84
2024/01/08 07:53:12;;;;;;;6.07;3.70;;;-4.90;99.90;;;;;;4772644;30;20184;-82
2024/01/08 07:55:37;;;;;;;4.27;2.90;;;-4.90;99.90;;;;;;4791183;30;21007;-82
2024/01/08 07:58:03;;;;;;;7.07;3.00;;;-4.90;99.90;;;;;;4770853;30;20211;-83
2024/01/08 08:00:29;;;;;;;5.10;3.00;;;-4.90;99.90;;;;;;4758820;30;20575;-82
2024/01/08 08:02:55;;;;;;;5.07;3.10;;;-4.90;99.90;;;;;;4758474;30;20226;-83
2024/01/08 08:05:21;;;;;;;5.27;3.20;;;-4.90;99.90;;;;;;4761406;30;20245;-83
2024/01/08 08:07:47;;;;;;;6.67;3.40;;;-4.80;99.90;;;;;;4768614;30;20282;-83
2024/01/08 08:10:13;;;;;;;6.37;3.47;;;-4.90;99.90;;;;;;4768374;30;20534;-83
2024/01/08 08:12:40;;;;;;;5.17;2.70;;;-4.90;99.90;;;;;;4765980;30;20198;-83
2024/01/08 08:15:07;;;;;;;5.87;2.83;;;-4.90;99.90;;;;;;4779935;30;20189;-83
2024/01/08 08:17:32;;;;;;;5.73;3.27;;;-4.90;99.90;;;;;;4775363;29;20194;-84
2024/01/08 08:19:58;;;;;;;4.63;2.93;;;-5.00;99.90;;;;;;4758234;30;20661;-83
2024/01/08 08:22:26;;;;;;;5.40;3.20;;;-4.90;99.90;;;;;;4765717;30;20562;-82
2024/01/08 08:24:52;;;;;;;4.63;3.00;;;-4.90;99.90;;;;;;4780209;30;20199;-83
2024/01/08 08:27:18;;;;;;;4.33;2.63;;;-4.90;99.90;;;;;;4757933;30;20202;-82
2024/01/08 08:29:45;;;;;;;4.80;2.90;;;-4.80;99.90;;;;;;4766673;30;20288;-83
2024/01/08 08:32:12;;;;;;;3.60;2.73;;;-4.80;99.90;;;;;;4771620;30;20195;-83
2024/01/08 08:34:39;;;;;;;5.00;2.73;;;-4.80;99.90;;;;;;4760804;30;20593;-80
2024/01/08 08:37:09;;;;;;;5.23;2.83;;;-4.80;99.90;;;;;;4761901;30;20532;-82
2024/01/08 08:39:36;;;;;;;4.53;2.80;;;-4.70;99.90;;;;;;4765178;30;20195;-83
2024/01/08 08:42:03;;;;;;;4.67;2.70;;;-4.80;99.90;;;;;;4765368;30;20258;-84
2024/01/08 08:44:29;;;;;;;3.73;2.47;;;-4.80;99.90;;;;;;4787327;29;20575;-81
2024/01/08 08:46:55;;;;;;;4.10;2.77;;;-4.60;99.90;;;;;;4765061;30;20226;-82
2024/01/08 08:49:20;;;;;;;4.77;2.90;;;-4.70;99.90;;;;;;4781021;30;20191;-84
2024/01/08 08:51:46;;;;;;;5.17;3.37;;;-4.60;99.90;;;;;;4774766;30;20203;-83
2024/01/08 08:54:13;;;;;;;3.87;2.60;;;-4.60;99.90;;;;;;4783536;29;20616;-83
2024/01/08 08:56:39;;;;;;;5.20;2.83;;;-4.60;99.90;;;;;;4765134;30;20218;-81
2024/01/08 08:59:05;;;;;;;5.03;3.03;;;-4.60;99.90;;;;;;4763207;30;20283;-84
2024/01/08 09:01:31;;;;;;;5.17;3.27;;;-4.60;99.90;;;;;;4773487;30;20264;-82
2024/01/08 09:03:57;;;;;;;5.30;3.00;;;-4.60;99.90;;;;;;4784947;30;20747;-80
2024/01/08 09:06:24;;;;;;;6.27;3.60;;;-4.60;99.90;;;;;;4766601;30;20278;-81
2024/01/08 09:08:50;;;;;;;4.07;3.07;;;-4.60;99.90;;;;;;4768406;30;20198;-83
2024/01/08 09:11:17;;;;;;;6.83;3.90;;;-4.60;99.90;;;;;;4767634;30;20198;-82
2024/01/08 09:13:49;;;;;;;5.57;3.23;;;-4.50;99.90;;;;;;4760122;30;20199;-82
2024/01/08 09:16:15;;;;;;;6.00;3.03;;;-4.50;99.90;;;;;;4775039;30;20711;-83
2024/01/08 09:18:42;;;;;;;5.27;3.17;;;-4.40;99.90;;;;;;4767399;30;20546;-81
2024/01/08 09:21:08;;;;;;;8.03;3.27;;;-4.40;99.90;;;;;;4767264;30;20227;-82
2024/01/08 09:23:34;;;;;;;5.33;3.30;;;-4.40;99.90;;;;;;4783168;30;20218;-82
2024/01/08 09:26:00;;;;;;;4.77;2.90;;;-4.40;99.90;;;;;;4762523;30;20252;-83
2024/01/08 09:28:26;;;;;;;5.37;3.10;;;-4.40;99.90;;;;;;4772716;30;20287;-82
2024/01/08 09:30:54;;;;;;;4.90;2.80;;;-4.30;99.90;;;;;;4764153;30;20199;-82
2024/01/08 09:33:21;;;;;;;4.10;2.70;;;-4.30;99.90;;;;;;4779961;30;20611;-82
2024/01/08 09:35:47;;;;;;;4.30;2.40;;;-4.30;99.90;;;;;;4786875;30;20196;-82
2024/01/08 09:38:13;;;;;;;5.50;2.70;;;-4.20;99.90;;;;;;4770454;30;20199;-82
2024/01/08 09:40:41;;;;;;;4.37;2.93;;;-4.20;99.90;;;;;;4783009;29;20307;-83
2024/01/08 09:43:09;;;;;;;4.33;2.73;;;-4.20;99.90;;;;;;4774240;30;20357;-83
2024/01/08 09:45:41;;;;;;;7.10;3.10;;;-4.20;99.90;;;;;;4780888;30;20576;-82
2024/01/08 09:48:08;;;;;;;4.93;2.53;;;-4.10;99.90;;;;;;4762233;30;20195;-82
2024/01/08 09:50:37;;;;;;;4.63;2.93;;;-4.10;99.90;;;;;;4788516;30;20196;-82
2024/01/08 09:53:04;;;;;;;6.73;4.13;;;-4.00;99.90;;;;;;4761944;30;20199;-82
2024/01/08 09:55:30;;;;;;;7.33;4.60;;;-4.00;99.90;;;;;;4765401;30;20228;-82
2024/01/08 09:57:56;;;;;;;4.97;2.93;;;-3.90;99.90;;;;;;4763666;30;20199;-82
2024/01/08 10:00:22;;;;;;;4.03;2.37;;;-4.00;99.90;;;;;;4779506;30;20278;-81
2024/01/08 10:02:56;;;;;;;4.60;2.70;;;-3.90;99.90;;;;;;4783060;30;20231;-81
2024/01/08 10:05:22;;;;;;;4.57;2.70;;;-3.90;99.90;;;;;;4761758;30;20229;-83
2024/01/08 10:07:49;;;;;;;5.63;3.30;;;-3.80;99.90;;;;;;4770233;30;20260;-82
2024/01/08 10:10:15;;;;;;;10.83;5.03;;;-3.80;99.90;;;;;;4763847;30;20517;-82
2024/01/08 10:12:43;;;;;;;6.00;3.37;;;-3.80;99.90;;;;;;4767662;30;20683;-82
2024/01/08 10:15:10;;;;;;;7.40;4.60;;;-3.80;99.90;;;;;;4766450;30;20557;-83
2024/01/08 10:17:36;;;;;;;6.63;2.73;;;-3.80;99.90;;;;;;4761470;30;20291;-82
2024/01/08 10:20:07;;;;;;;7.33;3.50;;;-3.70;99.90;;;;;;4760553;30;20625;-82
2024/01/08 10:22:33;;;;;;;5.57;3.40;;;-3.60;99.90;;;;;;4769193;30;20278;-81
2024/01/08 10:25:02;;;;;;;5.47;3.40;;;-3.60;99.90;;;;;;4772308;30;20196;-81
2024/01/08 10:27:29;;;;;;;5.33;2.90;;;-3.60;99.90;;;;;;4769543;30;20199;-80
2024/01/08 10:29:56;;;;;;;5.83;3.63;;;-3.50;99.90;;;;;;4757164;30;20256;-81
2024/01/08 10:32:24;;;;;;;5.80;3.57;;;-3.40;99.90;;;;;;4762878;30;20534;-79
2024/01/08 10:34:56;;;;;;;6.67;3.37;;;-3.50;99.90;;;;;;4762120;30;20647;-81
2024/01/08 10:37:22;;;;;;;5.97;3.40;;;-3.50;99.90;;;;;;4770258;30;20315;-79
2024/01/08 10:39:50;;;;;;;5.10;3.23;;;-3.40;99.90;;;;;;4764725;30;20278;-78
2024/01/08 10:42:16;;;;;;;4.27;2.87;;;-3.40;99.90;;;;;;4771497;30;20217;-80
2024/01/08 10:44:42;;;;;;;5.17;2.73;;;-3.40;99.90;;;;;;4769013;30;20299;-80
2024/01/08 10:47:17;;;;;;;8.93;4.50;;;-3.40;99.90;;;;;;4758795;30;20307;-82
2024/01/08 10:49:51;;;;;;;13.67;7.03;;;-3.40;99.90;;;;;;4764258;30;20319;-82
2024/01/08 10:52:28;;;;;;;6.23;3.90;;;-3.50;99.90;;;;;;4770242;30;20283;-82
2024/01/08 10:54:58;;;;;;;5.63;3.43;;;-3.40;99.90;;;;;;4758081;30;20260;-82
2024/01/08 10:57:36;;;;;;;5.37;2.93;;;-3.30;99.90;;;;;;4764243;30;20200;-81
2024/01/08 11:00:09;;;;;;;4.03;2.73;;;-3.30;99.90;;;;;;4763282;30;20246;-81
2024/01/08 11:02:37;;;;;;;6.20;2.90;;;-3.40;99.90;;;;;;4764118;30;20216;-81
2024/01/08 11:05:06;;;;;;;4.67;2.60;;;-3.30;99.90;;;;;;4757346;30;20251;-81
2024/01/08 11:07:40;;;;;;;5.93;2.83;;;-3.30;99.90;;;;;;4758533;30;20644;-80
2024/01/08 11:10:09;;;;;;;7.27;4.10;;;-3.30;99.90;;;;;;4754709;30;20197;-83
2024/01/08 11:12:41;;;;;;;6.30;3.50;;;-3.30;99.90;;;;;;4752415;30;20205;-81
2024/01/08 11:15:09;;;;;;;5.80;3.40;;;-3.30;99.90;;;;;;4761078;30;20202;-82
2024/01/08 11:17:35;;;;;;;9.40;5.33;;;-3.20;99.90;;;;;;4746884;30;20194;-83
2024/01/08 11:20:05;;;;;;;8.23;4.93;;;-3.20;99.90;;;;;;4770202;30;20219;-83
2024/01/08 11:22:32;;;;;;;5.70;3.10;;;-3.10;99.90;;;;;;4761187;30;20245;-83
2024/01/08 11:24:59;;;;;;;4.87;3.17;;;-3.00;99.90;;;;;;4757407;30;20201;-83
2024/01/08 11:27:25;;;;;;;5.40;3.57;;;-3.00;99.90;;;;;;4777012;30;20601;-82
2024/01/08 11:29:58;;;;;;;4.50;3.20;;;-2.90;99.90;;;;;;4756389;30;20202;-82
2024/01/08 11:32:24;;;;;;;4.13;2.80;;;-2.80;99.90;;;;;;4762347;30;20226;-84
2024/01/08 11:34:59;;;;;;;6.30;3.00;;;-2.80;99.90;;;;;;4761606;30;20190;-82
2024/01/08 11:37:31;;;;;;;4.67;2.83;;;-2.80;99.90;;;;;;4762459;30;20188;-81
2024/01/08 11:40:12;;;;;;;6.37;3.27;;;-2.70;99.90;;;;;;4751940;30;20195;-82
2024/01/08 11:42:38;;;;;;;6.47;3.50;;;-2.70;99.90;;;;;;4759351;30;20234;-81
2024/01/08 11:45:04;;;;;;;6.67;3.70;;;-2.80;99.90;;;;;;4752999;30;20230;-81
2024/01/08 11:47:31;;;;;;;6.27;3.80;;;-2.70;99.90;;;;;;4758910;30;20197;-81
2024/01/08 11:49:57;;;;;;;6.03;3.23;;;-2.60;99.90;;;;;;4759409;30;20585;-81
2024/01/08 11:52:26;;;;;;;5.13;3.10;;;-2.50;99.90;;;;;;4753123;30;20203;-82
2024/01/08 11:54:59;;;;;;;3.80;2.60;;;-2.60;99.90;;;;;;4756127;30;20200;-82
2024/01/08 11:57:25;;;;;;;5.83;3.10;;;-2.60;99.90;;;;;;4762372;30;20201;-82
2024/01/08 11:59:52;;;;;;;4.83;2.97;;;-2.60;99.90;;;;;;4759841;30;20195;-81
2024/01/08 12:02:28;;;;;;;5.67;2.57;;;-2.60;99.90;;;;;;4766181;30;20237;-82
2024/01/08 12:04:57;;;;;;;4.30;2.83;;;-2.50;99.90;;;;;;4776184;30;20246;-82
2024/01/08 12:07:25;;;;;;;4.67;2.93;;;-2.50;99.90;;;;;;4777759;30;20198;-81
2024/01/08 12:09:51;;;;;;;5.87;3.10;;;-2.40;99.90;;;;;;4757401;30;20202;-81
2024/01/08 12:12:18;;;;;;;5.70;3.40;;;-2.30;99.90;;;;;;4758578;30;20230;-83
2024/01/08 12:14:48;;;;;;;7.17;3.87;;;-2.30;99.90;;;;;;4757843;30;20206;-82
2024/01/08 12:17:23;;;;;;;5.67;2.80;;;-2.30;99.90;;;;;;4788542;30;20191;-81
2024/01/08 12:19:57;;;;;;;4.30;2.80;;;-2.40;99.90;;;;;;4769830;30;20216;-82
2024/01/08 12:22:24;;;;;;;5.30;2.70;;;-2.40;99.90;;;;;;4757959;30;20227;-82
2024/01/08 12:24:50;;;;;;;4.77;2.93;;;-2.40;99.90;;;;;;4791724;29;20188;-82
2024/01/08 12:27:23;;;;;;;5.13;2.63;;;-2.40;99.90;;;;;;4761546;30;20199;-82
2024/01/08 12:29:54;;;;;;;4.57;3.10;;;-2.20;99.90;;;;;;4774189;30;20555;-81
2024/01/08 12:32:21;;;;;;;5.07;2.67;;;-2.20;99.90;;;;;;4757948;30;20270;-81
2024/01/08 12:34:48;;;;;;;3.53;2.20;;;-2.20;99.90;;;;;;4754256;30;20539;-82
2024/01/08 12:37:17;;;;;;;4.03;2.43;;;-2.30;99.90;;;;;;4785185;29;20189;-82
2024/01/08 12:39:44;;;;;;;4.23;2.57;;;-2.30;99.90;;;;;;4778538;30;20191;-83
2024/01/08 12:42:15;;;;;;;5.57;2.97;;;-2.30;99.90;;;;;;4765262;30;20217;-82
2024/01/08 12:44:41;;;;;;;4.27;2.57;;;-2.40;99.90;;;;;;4776345;30;20204;-82